Terminal Aerodrome Forecast
Issued by NWS

Home | Current Version | Previous Version | Text Only | Print | Product List | Glossary On
Versions: 1 2 3 4 5 6 7 8 9 10 11 12 13 14
518
FTUS43 KOAX 231135
TAFBFF
TAF
KBFF 231135Z 2312/2412 32008KT P6SM SCT100
     FM232000 35009KT P6SM SKC
     FM232300 07007KT P6SM FEW250=

USA.gov is the U.S. government's official web portal to all federal, state and local government web resources and services.